• Join FlightAware (Why Join?)
  • Login
  • US Flag 
12:50AM EDT


 

Airport Tracker/Info


-or-


 

Live Flight TrackerFlight Track Log ✈ JZA8753 ✈ 18-Nov-2013 ✈ CYUL - CYVO

Flight Track Log - Related Links

Times and Time Zones

All times are in EST time to prevent confusion due to time zone crossing. See the JZA8753 flight status page for this flight to view local times or setup timezone preferences in your user account.

Time Position Orientation Groundspeed Altitude Reporting Facility
EST Latitude Longitude Course Direction KTS MPH feet Rate Location/Type
07:13PM 45.4500 -73.7167 270° West 90 104 100  Level Montreal Center
07:14PM 45.4500 -73.7500 270° West 110 127 600 1,080 Climbing Montreal Center
07:15PM 45.4667 -73.7667 325° Northwest 120 138 2,300 1,380 Climbing Montreal Center
07:16PM 45.5000 -73.8167 314° West 130 150 3,400 1,200 Climbing Montreal Center
07:17PM 45.5000 -73.8667 270° West 150 173 4,700 1,200 Climbing Montreal Center
07:18PM 45.5333 -73.9167 314° West 150 173 5,900 1,080 Climbing Montreal Center
07:19PM 45.5500 -73.9833 290° West 170 196 6,900 900 Climbing Montreal Center
07:20PM 45.6000 -74.0500 317° Northwest 180 207 7,800 900 Climbing Montreal Center
07:21PM 45.6167 -74.1000 295° West 180 207 8,800 960 Climbing Montreal Center
07:22PM 45.6500 -74.1667 306° West 190 219 9,800 1,080 Climbing Montreal Center
07:23PM 45.6833 -74.2167 314° West 190 219 11,000 1,020 Climbing Montreal Center
07:24PM 45.7167 -74.2667 314° West 190 219 11,900 900 Climbing Montreal Center
07:25PM 45.7667 -74.3333 317° Northwest 190 219 12,900 900 Climbing Montreal Center
07:26PM 45.8000 -74.3833 314° West 200 230 13,700 900 Climbing Montreal Center
07:27PM 45.8333 -74.4333 314° West 200 230 14,700 900 Climbing Montreal Center
07:28PM 45.8833 -74.5000 317° Northwest 200 230 15,600 600 Climbing Montreal Center
07:29PM 45.9167 -74.5500 314° West 210 242 16,000 180 Climbing Montreal Center
07:30PM 45.9667 -74.6167 317° Northwest 220 253 16,000  Level Montreal Center
07:31PM 46.0167 -74.6833 317° Northwest 230 265 16,000  Level Montreal Center
07:32PM 46.0500 -74.7333 314° West 230 265 16,000  Level Montreal Center
07:33PM 46.1000 -74.8000 317° Northwest 230 265 16,000  Level Montreal Center
07:34PM 46.1500 -74.8833 311° West 230 265 16,000  Level Montreal Center
07:35PM 46.1833 -74.9333 314° West 230 265 16,000 -60 Level Montreal Center
07:36PM 46.2500 -75.0000 325° Northwest 230 265 15,900  Descending Montreal Center
07:37PM 46.3000 -75.0667 317° Northwest 230 265 16,000  Climbing Montreal Center
07:38PM 46.3500 -75.1333 317° Northwest 240 276 16,000  Level Montreal Center
07:39PM 46.4000 -75.1833 325° Northwest 230 265 16,000  Level Montreal Center
07:40PM 46.4333 -75.2667 300° West 230 265 16,000  Level Montreal Center
07:41PM 46.4833 -75.3333 317° Northwest 230 265 16,000  Level Montreal Center
07:42PM 46.5333 -75.4000 317° Northwest 230 265 16,000  Level Montreal Center
07:43PM 46.5833 -75.4500 326° Northwest 230 265 16,000  Level Montreal Center
07:44PM 46.6167 -75.5333 300° West 230 265 16,000  Level Montreal Center
07:45PM 46.6667 -75.6000 318° Northwest 230 265 16,000  Level Montreal Center
07:46PM 46.7167 -75.6500 326° Northwest 230 265 16,000  Level Montreal Center
07:47PM 46.7667 -75.7167 318° Northwest 230 265 16,000  Level Montreal Center
07:48PM 46.8000 -75.8000 300° West 230 265 16,100 120 Climbing Montreal Center
07:49PM 46.8500 -75.8667 318° Northwest 230 265 16,300 60 Climbing Montreal Center
07:50PM 46.9000 -75.9167 326° Northwest 230 265 16,300  Level Montreal Center
07:51PM 46.9333 -76.0000 300° West 230 265 16,300  Level Montreal Center
07:52PM 46.9833 -76.0667 318° Northwest 230 265 16,300  Level Montreal Center
07:53PM 47.0333 -76.1167 326° Northwest 230 265 16,300  Level Montreal Center
07:54PM 47.0833 -76.1833 318° Northwest 230 265 16,300  Level Montreal Center
07:55PM 47.1167 -76.2667 300° West 220 253 16,300  Level Montreal Center
07:56PM 47.1667 -76.3167 326° Northwest 220 253 16,300  Level Montreal Center
07:57PM 47.2000 -76.3833 306° West 220 253 16,300 -180 Level Montreal Center
07:58PM 47.2500 -76.4333 326° Northwest 220 253 16,000 -180 Descending Montreal Center
07:59PM 47.2833 -76.5167 301° West 220 253 16,000  Level Montreal Center
08:00PM 47.3167 -76.5833 306° West 210 242 16,000  Level Montreal Center
08:01PM 47.3500 -76.6667 301° West 210 242 16,000  Level Montreal Center
08:02PM 47.3833 -76.7333 306° West 210 242 16,000  Level Montreal Center
08:03PM 47.4333 -76.8167 312° West 220 253 16,000 -300 Level Montreal Center
08:04PM 47.4667 -76.8833 307° West 230 265 15,400 -900 Descending Montreal Center
08:05PM 47.5000 -76.9667 301° West 240 276 14,300 -1,140 Descending Montreal Center
08:06PM 47.5500 -77.0333 318° Northwest 260 299 13,200 -1,140 Descending Montreal Center
08:10PM 47.6083 -77.1615 304° West  Level FlightAware Approximate
08:17PM 47.8399 -77.6630 307° West  Level FlightAware Approximate
08:18PM 47.8795 -77.7231 341° North  Level FlightAware Approximate
08:19PM 47.9362 -77.7411 345° North  Level FlightAware Approximate
08:20PM 47.9927 -77.7637 345° North  Level FlightAware Approximate
08:21PM 48.0500 -77.7667 North  Level FlightAware Approximate
08:22PM 48.0533 -77.7828 North  Level Estimated
08:23PM 48.0533 -77.7828 North  Level Estimated
08:24PM 48.0533 -77.7828 North  Level Estimated
08:25PM 48.0533 -77.7828 North  Level Estimated